sensor_id;sensor_type;location;lat;lon;timestamp;P1;durP1;ratioP1;P2;durP2;ratioP2
10134;SDS011;5107;48.850;8.924;2022-12-07T00:01:47;10.83;;;7.03;;
10134;SDS011;5107;48.850;8.924;2022-12-07T00:04:15;11.03;;;7.03;;
10134;SDS011;5107;48.850;8.924;2022-12-07T00:06:44;14.63;;;7.77;;
10134;SDS011;5107;48.850;8.924;2022-12-07T00:09:15;12.17;;;7.50;;
10134;SDS011;5107;48.850;8.924;2022-12-07T00:11:43;10.20;;;6.53;;
10134;SDS011;5107;48.850;8.924;2022-12-07T00:14:14;15.53;;;7.97;;
10134;SDS011;5107;48.850;8.924;2022-12-07T00:16:43;10.93;;;7.40;;
10134;SDS011;5107;48.850;8.924;2022-12-07T00:19:11;14.00;;;7.90;;
10134;SDS011;5107;48.850;8.924;2022-12-07T00:21:40;12.67;;;7.47;;
10134;SDS011;5107;48.850;8.924;2022-12-07T00:24:07;11.10;;;7.40;;
10134;SDS011;5107;48.850;8.924;2022-12-07T00:26:36;10.23;;;7.30;;
10134;SDS011;5107;48.850;8.924;2022-12-07T00:29:06;10.30;;;7.20;;
10134;SDS011;5107;48.850;8.924;2022-12-07T00:31:38;9.50;;;7.00;;
10134;SDS011;5107;48.850;8.924;2022-12-07T00:34:05;11.37;;;7.17;;
10134;SDS011;5107;48.850;8.924;2022-12-07T00:36:33;12.27;;;7.90;;
10134;SDS011;5107;48.850;8.924;2022-12-07T00:39:00;11.00;;;7.23;;
10134;SDS011;5107;48.850;8.924;2022-12-07T00:41:28;11.27;;;7.93;;
10134;SDS011;5107;48.850;8.924;2022-12-07T00:43:58;12.53;;;7.87;;
10134;SDS011;5107;48.850;8.924;2022-12-07T00:46:25;10.60;;;7.43;;
10134;SDS011;5107;48.850;8.924;2022-12-07T00:48:53;12.17;;;7.30;;
10134;SDS011;5107;48.850;8.924;2022-12-07T00:51:21;11.50;;;7.20;;
10134;SDS011;5107;48.850;8.924;2022-12-07T00:53:50;11.63;;;7.13;;
10134;SDS011;5107;48.850;8.924;2022-12-07T00:56:18;12.27;;;7.57;;
10134;SDS011;5107;48.850;8.924;2022-12-07T00:58:49;11.23;;;7.40;;
10134;SDS011;5107;48.850;8.924;2022-12-07T01:01:19;11.27;;;7.77;;
10134;SDS011;5107;48.850;8.924;2022-12-07T01:03:46;11.97;;;7.30;;
10134;SDS011;5107;48.850;8.924;2022-12-07T01:06:14;10.77;;;7.63;;
10134;SDS011;5107;48.850;8.924;2022-12-07T01:08:43;12.43;;;7.67;;
10134;SDS011;5107;48.850;8.924;2022-12-07T01:11:12;11.63;;;8.03;;
10134;SDS011;5107;48.850;8.924;2022-12-07T01:13:41;12.53;;;7.30;;
10134;SDS011;5107;48.850;8.924;2022-12-07T01:16:09;10.40;;;7.63;;
10134;SDS011;5107;48.850;8.924;2022-12-07T01:18:40;11.90;;;7.33;;
10134;SDS011;5107;48.850;8.924;2022-12-07T01:21:10;11.00;;;6.73;;
10134;SDS011;5107;48.850;8.924;2022-12-07T01:23:40;9.90;;;6.93;;
10134;SDS011;5107;48.850;8.924;2022-12-07T01:26:09;10.10;;;7.10;;
10134;SDS011;5107;48.850;8.924;2022-12-07T01:28:38;10.90;;;6.60;;
10134;SDS011;5107;48.850;8.924;2022-12-07T01:31:06;13.30;;;7.60;;
10134;SDS011;5107;48.850;8.924;2022-12-07T01:33:36;11.67;;;7.10;;
10134;SDS011;5107;48.850;8.924;2022-12-07T01:36:08;11.30;;;7.17;;
10134;SDS011;5107;48.850;8.924;2022-12-07T01:38:41;11.37;;;7.30;;
10134;SDS011;5107;48.850;8.924;2022-12-07T01:41:09;11.53;;;7.60;;
10134;SDS011;5107;48.850;8.924;2022-12-07T01:44:05;12.43;;;7.83;;
10134;SDS011;5107;48.850;8.924;2022-12-07T01:46:45;11.43;;;7.50;;
10134;SDS011;5107;48.850;8.924;2022-12-07T01:49:16;10.17;;;6.80;;
10134;SDS011;5107;48.850;8.924;2022-12-07T01:51:49;9.70;;;6.80;;
10134;SDS011;5107;48.850;8.924;2022-12-07T01:54:21;10.77;;;6.83;;
10134;SDS011;5107;48.850;8.924;2022-12-07T01:56:49;13.70;;;7.60;;
10134;SDS011;5107;48.850;8.924;2022-12-07T01:59:19;11.23;;;7.07;;
10134;SDS011;5107;48.850;8.924;2022-12-07T02:01:51;11.63;;;7.47;;
10134;SDS011;5107;48.850;8.924;2022-12-07T02:04:22;13.53;;;7.77;;
10134;SDS011;5107;48.850;8.924;2022-12-07T02:06:49;12.63;;;7.93;;
10134;SDS011;5107;48.850;8.924;2022-12-07T02:09:17;12.80;;;7.43;;
10134;SDS011;5107;48.850;8.924;2022-12-07T02:11:44;10.70;;;7.60;;
10134;SDS011;5107;48.850;8.924;2022-12-07T02:14:12;15.57;;;8.53;;
10134;SDS011;5107;48.850;8.924;2022-12-07T02:16:42;18.37;;;9.07;;
10134;SDS011;5107;48.850;8.924;2022-12-07T02:19:28;11.40;;;7.27;;
10134;SDS011;5107;48.850;8.924;2022-12-07T02:22:30;11.30;;;7.80;;
10134;SDS011;5107;48.850;8.924;2022-12-07T02:25:20;12.43;;;7.43;;
10134;SDS011;5107;48.850;8.924;2022-12-07T02:28:01;11.50;;;7.37;;
10134;SDS011;5107;48.850;8.924;2022-12-07T02:30:34;13.67;;;7.90;;
10134;SDS011;5107;48.850;8.924;2022-12-07T02:33:10;13.37;;;7.77;;
10134;SDS011;5107;48.850;8.924;2022-12-07T02:35:42;15.00;;;8.37;;
10134;SDS011;5107;48.850;8.924;2022-12-07T02:38:15;13.43;;;8.40;;
10134;SDS011;5107;48.850;8.924;2022-12-07T02:40:48;18.00;;;9.57;;
10134;SDS011;5107;48.850;8.924;2022-12-07T02:43:21;16.33;;;9.10;;
10134;SDS011;5107;48.850;8.924;2022-12-07T02:45:54;15.00;;;9.30;;
10134;SDS011;5107;48.850;8.924;2022-12-07T02:48:25;14.13;;;8.90;;
10134;SDS011;5107;48.850;8.924;2022-12-07T02:50:53;16.60;;;9.23;;
10134;SDS011;5107;48.850;8.924;2022-12-07T02:53:30;15.73;;;9.03;;
10134;SDS011;5107;48.850;8.924;2022-12-07T02:55:59;13.87;;;8.73;;
10134;SDS011;5107;48.850;8.924;2022-12-07T02:58:35;14.83;;;8.83;;
10134;SDS011;5107;48.850;8.924;2022-12-07T03:01:19;13.20;;;8.60;;
10134;SDS011;5107;48.850;8.924;2022-12-07T03:04:04;15.60;;;9.47;;
10134;SDS011;5107;48.850;8.924;2022-12-07T03:06:42;14.13;;;8.63;;
10134;SDS011;5107;48.850;8.924;2022-12-07T03:09:18;14.00;;;8.57;;
10134;SDS011;5107;48.850;8.924;2022-12-07T03:11:55;14.63;;;8.37;;
10134;SDS011;5107;48.850;8.924;2022-12-07T03:14:35;14.40;;;8.97;;
10134;SDS011;5107;48.850;8.924;2022-12-07T03:17:12;15.93;;;8.73;;
10134;SDS011;5107;48.850;8.924;2022-12-07T03:19:42;14.13;;;8.37;;
10134;SDS011;5107;48.850;8.924;2022-12-07T03:22:12;14.10;;;8.33;;
10134;SDS011;5107;48.850;8.924;2022-12-07T03:24:41;14.83;;;9.07;;
10134;SDS011;5107;48.850;8.924;2022-12-07T03:27:14;13.60;;;7.97;;
10134;SDS011;5107;48.850;8.924;2022-12-07T03:29:46;14.40;;;8.83;;
10134;SDS011;5107;48.850;8.924;2022-12-07T03:32:21;13.70;;;8.63;;
10134;SDS011;5107;48.850;8.924;2022-12-07T03:34:56;14.63;;;7.90;;
10134;SDS011;5107;48.850;8.924;2022-12-07T03:37:29;13.47;;;7.87;;
10134;SDS011;5107;48.850;8.924;2022-12-07T03:40:03;13.07;;;7.93;;
10134;SDS011;5107;48.850;8.924;2022-12-07T03:42:38;11.73;;;7.70;;
10134;SDS011;5107;48.850;8.924;2022-12-07T03:45:05;10.67;;;7.13;;
10134;SDS011;5107;48.850;8.924;2022-12-07T03:47:37;12.97;;;8.07;;
10134;SDS011;5107;48.850;8.924;2022-12-07T03:50:14;12.00;;;6.97;;
10134;SDS011;5107;48.850;8.924;2022-12-07T03:52:51;12.83;;;7.50;;
10134;SDS011;5107;48.850;8.924;2022-12-07T03:55:24;11.17;;;7.33;;
10134;SDS011;5107;48.850;8.924;2022-12-07T03:57:57;14.20;;;7.20;;
10134;SDS011;5107;48.850;8.924;2022-12-07T04:00:27;9.93;;;6.57;;
10134;SDS011;5107;48.850;8.924;2022-12-07T04:02:56;8.97;;;6.07;;
10134;SDS011;5107;48.850;8.924;2022-12-07T04:05:23;10.00;;;6.10;;
10134;SDS011;5107;48.850;8.924;2022-12-07T04:07:50;9.93;;;6.07;;
10134;SDS011;5107;48.850;8.924;2022-12-07T04:10:17;11.13;;;6.13;;
10134;SDS011;5107;48.850;8.924;2022-12-07T04:12:45;9.93;;;6.13;;
10134;SDS011;5107;48.850;8.924;2022-12-07T04:15:12;11.90;;;7.57;;
10134;SDS011;5107;48.850;8.924;2022-12-07T04:17:39;10.73;;;7.47;;
10134;SDS011;5107;48.850;8.924;2022-12-07T04:20:08;12.47;;;7.10;;
10134;SDS011;5107;48.850;8.924;2022-12-07T04:22:37;12.00;;;7.17;;
10134;SDS011;5107;48.850;8.924;2022-12-07T04:25:04;13.07;;;8.17;;
10134;SDS011;5107;48.850;8.924;2022-12-07T04:27:32;11.07;;;6.83;;
10134;SDS011;5107;48.850;8.924;2022-12-07T04:29:59;10.20;;;6.90;;
10134;SDS011;5107;48.850;8.924;2022-12-07T04:32:27;8.80;;;6.53;;
10134;SDS011;5107;48.850;8.924;2022-12-07T04:34:54;9.67;;;6.83;;
10134;SDS011;5107;48.850;8.924;2022-12-07T04:37:22;10.47;;;6.53;;
10134;SDS011;5107;48.850;8.924;2022-12-07T04:39:49;11.87;;;6.10;;
10134;SDS011;5107;48.850;8.924;2022-12-07T04:42:16;8.90;;;6.33;;
10134;SDS011;5107;48.850;8.924;2022-12-07T04:44:43;9.07;;;5.93;;
10134;SDS011;5107;48.850;8.924;2022-12-07T04:47:10;8.07;;;5.23;;
10134;SDS011;5107;48.850;8.924;2022-12-07T04:49:37;9.03;;;5.50;;
10134;SDS011;5107;48.850;8.924;2022-12-07T04:52:04;9.60;;;6.03;;
10134;SDS011;5107;48.850;8.924;2022-12-07T04:54:33;11.40;;;6.40;;
10134;SDS011;5107;48.850;8.924;2022-12-07T04:57:00;9.67;;;5.50;;
10134;SDS011;5107;48.850;8.924;2022-12-07T04:59:27;8.10;;;5.33;;
10134;SDS011;5107;48.850;8.924;2022-12-07T05:01:54;8.93;;;5.17;;
10134;SDS011;5107;48.850;8.924;2022-12-07T05:04:21;8.70;;;5.13;;
10134;SDS011;5107;48.850;8.924;2022-12-07T05:06:48;7.93;;;4.80;;
10134;SDS011;5107;48.850;8.924;2022-12-07T05:09:15;8.70;;;5.53;;
10134;SDS011;5107;48.850;8.924;2022-12-07T05:11:43;11.70;;;5.43;;
10134;SDS011;5107;48.850;8.924;2022-12-07T05:14:12;10.43;;;7.00;;
10134;SDS011;5107;48.850;8.924;2022-12-07T05:16:42;9.70;;;6.00;;
10134;SDS011;5107;48.850;8.924;2022-12-07T05:19:10;9.60;;;6.03;;
10134;SDS011;5107;48.850;8.924;2022-12-07T05:21:39;10.83;;;6.67;;
10134;SDS011;5107;48.850;8.924;2022-12-07T05:24:06;19.90;;;9.50;;
10134;SDS011;5107;48.850;8.924;2022-12-07T05:26:36;18.27;;;8.07;;
10134;SDS011;5107;48.850;8.924;2022-12-07T05:29:04;12.83;;;7.70;;
10134;SDS011;5107;48.850;8.924;2022-12-07T05:31:31;12.27;;;7.30;;
10134;SDS011;5107;48.850;8.924;2022-12-07T05:33:59;12.70;;;7.33;;
10134;SDS011;5107;48.850;8.924;2022-12-07T05:36:26;10.80;;;6.03;;
10134;SDS011;5107;48.850;8.924;2022-12-07T05:38:56;8.23;;;4.87;;
10134;SDS011;5107;48.850;8.924;2022-12-07T05:41:23;6.83;;;4.50;;
10134;SDS011;5107;48.850;8.924;2022-12-07T05:44:12;6.20;;;4.50;;
10134;SDS011;5107;48.850;8.924;2022-12-07T05:46:39;6.03;;;4.20;;
10134;SDS011;5107;48.850;8.924;2022-12-07T05:49:06;5.37;;;4.30;;
10134;SDS011;5107;48.850;8.924;2022-12-07T05:51:33;6.87;;;4.70;;
10134;SDS011;5107;48.850;8.924;2022-12-07T05:54:00;10.13;;;5.47;;
10134;SDS011;5107;48.850;8.924;2022-12-07T05:56:27;8.27;;;4.90;;
10134;SDS011;5107;48.850;8.924;2022-12-07T05:58:54;8.00;;;5.40;;
10134;SDS011;5107;48.850;8.924;2022-12-07T06:01:48;7.23;;;4.77;;
10134;SDS011;5107;48.850;8.924;2022-12-07T06:04:16;10.37;;;5.30;;
10134;SDS011;5107;48.850;8.924;2022-12-07T06:06:44;10.13;;;4.90;;
10134;SDS011;5107;48.850;8.924;2022-12-07T06:09:11;8.67;;;4.60;;
10134;SDS011;5107;48.850;8.924;2022-12-07T06:11:39;6.70;;;4.60;;
10134;SDS011;5107;48.850;8.924;2022-12-07T06:14:25;7.37;;;4.77;;
10134;SDS011;5107;48.850;8.924;2022-12-07T06:16:53;7.87;;;4.57;;
10134;SDS011;5107;48.850;8.924;2022-12-07T06:19:20;7.20;;;4.90;;
10134;SDS011;5107;48.850;8.924;2022-12-07T06:21:47;8.00;;;5.00;;
10134;SDS011;5107;48.850;8.924;2022-12-07T06:24:15;7.30;;;4.53;;
10134;SDS011;5107;48.850;8.924;2022-12-07T06:26:43;7.00;;;4.53;;
10134;SDS011;5107;48.850;8.924;2022-12-07T06:29:11;8.93;;;4.87;;
10134;SDS011;5107;48.850;8.924;2022-12-07T06:31:39;5.93;;;3.90;;
10134;SDS011;5107;48.850;8.924;2022-12-07T06:34:09;6.23;;;4.47;;
10134;SDS011;5107;48.850;8.924;2022-12-07T06:36:38;6.33;;;4.10;;
10134;SDS011;5107;48.850;8.924;2022-12-07T06:39:06;5.70;;;4.03;;
10134;SDS011;5107;48.850;8.924;2022-12-07T06:41:34;5.50;;;3.93;;
10134;SDS011;5107;48.850;8.924;2022-12-07T06:44:02;5.10;;;3.77;;
10134;SDS011;5107;48.850;8.924;2022-12-07T06:46:29;6.30;;;3.83;;
10134;SDS011;5107;48.850;8.924;2022-12-07T06:48:56;5.07;;;3.47;;
10134;SDS011;5107;48.850;8.924;2022-12-07T06:51:25;7.33;;;4.53;;
10134;SDS011;5107;48.850;8.924;2022-12-07T06:53:52;5.17;;;3.43;;
10134;SDS011;5107;48.850;8.924;2022-12-07T06:56:19;6.67;;;3.90;;
10134;SDS011;5107;48.850;8.924;2022-12-07T06:58:47;5.73;;;3.60;;
10134;SDS011;5107;48.850;8.924;2022-12-07T07:01:16;4.73;;;3.30;;
10134;SDS011;5107;48.850;8.924;2022-12-07T07:03:44;4.97;;;3.30;;
10134;SDS011;5107;48.850;8.924;2022-12-07T07:06:13;5.77;;;3.83;;
10134;SDS011;5107;48.850;8.924;2022-12-07T07:08:42;7.87;;;4.47;;
10134;SDS011;5107;48.850;8.924;2022-12-07T07:11:09;7.60;;;4.57;;
10134;SDS011;5107;48.850;8.924;2022-12-07T07:13:37;5.90;;;4.10;;
10134;SDS011;5107;48.850;8.924;2022-12-07T07:16:05;5.30;;;3.63;;
10134;SDS011;5107;48.850;8.924;2022-12-07T07:18:33;5.33;;;3.50;;
10134;SDS011;5107;48.850;8.924;2022-12-07T07:21:01;5.90;;;4.13;;
10134;SDS011;5107;48.850;8.924;2022-12-07T07:23:29;4.97;;;3.67;;
10134;SDS011;5107;48.850;8.924;2022-12-07T07:25:58;6.23;;;3.43;;
10134;SDS011;5107;48.850;8.924;2022-12-07T07:28:25;4.47;;;3.47;;
10134;SDS011;5107;48.850;8.924;2022-12-07T07:30:52;5.90;;;4.10;;
10134;SDS011;5107;48.850;8.924;2022-12-07T07:33:19;4.77;;;3.27;;
10134;SDS011;5107;48.850;8.924;2022-12-07T07:35:46;5.03;;;3.50;;
10134;SDS011;5107;48.850;8.924;2022-12-07T07:38:13;5.10;;;3.50;;
10134;SDS011;5107;48.850;8.924;2022-12-07T07:40:41;6.23;;;3.60;;
10134;SDS011;5107;48.850;8.924;2022-12-07T07:43:09;8.77;;;5.37;;
10134;SDS011;5107;48.850;8.924;2022-12-07T07:45:36;17.73;;;8.50;;
10134;SDS011;5107;48.850;8.924;2022-12-07T07:48:04;16.37;;;7.73;;
10134;SDS011;5107;48.850;8.924;2022-12-07T07:50:31;11.80;;;6.43;;
10134;SDS011;5107;48.850;8.924;2022-12-07T07:52:58;7.53;;;5.00;;
10134;SDS011;5107;48.850;8.924;2022-12-07T07:55:25;6.60;;;4.07;;
10134;SDS011;5107;48.850;8.924;2022-12-07T07:57:53;4.97;;;3.07;;
10134;SDS011;5107;48.850;8.924;2022-12-07T08:00:22;4.27;;;2.97;;
10134;SDS011;5107;48.850;8.924;2022-12-07T08:02:49;6.77;;;4.30;;
10134;SDS011;5107;48.850;8.924;2022-12-07T08:05:17;5.60;;;3.63;;
10134;SDS011;5107;48.850;8.924;2022-12-07T08:07:44;9.27;;;5.37;;
10134;SDS011;5107;48.850;8.924;2022-12-07T08:10:12;7.47;;;5.10;;
10134;SDS011;5107;48.850;8.924;2022-12-07T08:12:40;10.60;;;5.97;;
10134;SDS011;5107;48.850;8.924;2022-12-07T08:15:25;12.53;;;6.50;;
10134;SDS011;5107;48.850;8.924;2022-12-07T08:17:52;15.67;;;7.87;;
10134;SDS011;5107;48.850;8.924;2022-12-07T08:20:20;19.33;;;8.97;;
10134;SDS011;5107;48.850;8.924;2022-12-07T08:22:47;16.40;;;8.43;;
10134;SDS011;5107;48.850;8.924;2022-12-07T08:25:14;18.13;;;8.87;;
10134;SDS011;5107;48.850;8.924;2022-12-07T08:27:41;9.77;;;5.97;;
10134;SDS011;5107;48.850;8.924;2022-12-07T08:30:09;9.60;;;6.03;;
10134;SDS011;5107;48.850;8.924;2022-12-07T08:32:40;8.70;;;4.63;;
10134;SDS011;5107;48.850;8.924;2022-12-07T08:35:08;5.73;;;3.87;;
10134;SDS011;5107;48.850;8.924;2022-12-07T08:37:35;5.87;;;4.10;;
10134;SDS011;5107;48.850;8.924;2022-12-07T08:40:02;5.63;;;3.47;;
10134;SDS011;5107;48.850;8.924;2022-12-07T08:42:32;5.70;;;3.90;;
10134;SDS011;5107;48.850;8.924;2022-12-07T08:45:05;5.93;;;4.03;;
10134;SDS011;5107;48.850;8.924;2022-12-07T08:47:35;4.90;;;3.57;;
10134;SDS011;5107;48.850;8.924;2022-12-07T08:50:08;4.23;;;3.13;;
10134;SDS011;5107;48.850;8.924;2022-12-07T08:52:37;5.23;;;3.33;;
10134;SDS011;5107;48.850;8.924;2022-12-07T08:55:07;5.80;;;3.50;;
10134;SDS011;5107;48.850;8.924;2022-12-07T08:57:37;6.07;;;3.60;;
10134;SDS011;5107;48.850;8.924;2022-12-07T09:00:06;4.00;;;3.20;;
10134;SDS011;5107;48.850;8.924;2022-12-07T09:02:34;5.83;;;3.80;;
10134;SDS011;5107;48.850;8.924;2022-12-07T09:05:02;5.37;;;3.43;;
10134;SDS011;5107;48.850;8.924;2022-12-07T09:07:31;4.60;;;3.33;;
10134;SDS011;5107;48.850;8.924;2022-12-07T09:10:00;4.37;;;3.20;;
10134;SDS011;5107;48.850;8.924;2022-12-07T09:12:27;5.07;;;3.30;;
10134;SDS011;5107;48.850;8.924;2022-12-07T09:14:54;5.13;;;3.83;;
10134;SDS011;5107;48.850;8.924;2022-12-07T09:17:21;5.20;;;3.50;;
10134;SDS011;5107;48.850;8.924;2022-12-07T09:19:49;7.13;;;3.50;;
10134;SDS011;5107;48.850;8.924;2022-12-07T09:22:16;4.17;;;3.10;;
10134;SDS011;5107;48.850;8.924;2022-12-07T09:24:45;4.13;;;3.10;;
10134;SDS011;5107;48.850;8.924;2022-12-07T09:27:12;4.00;;;3.13;;
10134;SDS011;5107;48.850;8.924;2022-12-07T09:29:39;6.10;;;3.60;;
10134;SDS011;5107;48.850;8.924;2022-12-07T09:32:06;5.00;;;3.03;;
10134;SDS011;5107;48.850;8.924;2022-12-07T09:34:33;4.43;;;3.13;;
10134;SDS011;5107;48.850;8.924;2022-12-07T09:37:01;4.13;;;3.07;;
10134;SDS011;5107;48.850;8.924;2022-12-07T09:39:29;4.73;;;3.23;;
10134;SDS011;5107;48.850;8.924;2022-12-07T09:41:57;3.67;;;2.93;;
10134;SDS011;5107;48.850;8.924;2022-12-07T09:44:26;3.67;;;2.73;;
10134;SDS011;5107;48.850;8.924;2022-12-07T09:46:54;3.43;;;2.80;;
10134;SDS011;5107;48.850;8.924;2022-12-07T09:49:22;3.80;;;2.60;;
10134;SDS011;5107;48.850;8.924;2022-12-07T09:51:59;2.93;;;2.40;;
10134;SDS011;5107;48.850;8.924;2022-12-07T09:54:29;4.40;;;2.50;;
10134;SDS011;5107;48.850;8.924;2022-12-07T09:56:58;2.90;;;2.43;;
10134;SDS011;5107;48.850;8.924;2022-12-07T09:59:25;3.70;;;2.80;;
10134;SDS011;5107;48.850;8.924;2022-12-07T10:01:53;4.20;;;2.90;;
10134;SDS011;5107;48.850;8.924;2022-12-07T10:04:21;3.10;;;2.57;;
10134;SDS011;5107;48.850;8.924;2022-12-07T10:06:50;3.43;;;2.50;;
10134;SDS011;5107;48.850;8.924;2022-12-07T10:09:18;3.27;;;2.73;;
10134;SDS011;5107;48.850;8.924;2022-12-07T10:12:01;4.17;;;2.67;;
10134;SDS011;5107;48.850;8.924;2022-12-07T10:14:32;3.47;;;2.37;;
10134;SDS011;5107;48.850;8.924;2022-12-07T10:17:01;3.77;;;2.40;;
10134;SDS011;5107;48.850;8.924;2022-12-07T10:19:48;4.70;;;2.70;;
10134;SDS011;5107;48.850;8.924;2022-12-07T10:22:16;3.30;;;2.10;;
10134;SDS011;5107;48.850;8.924;2022-12-07T10:24:44;3.70;;;2.53;;
10134;SDS011;5107;48.850;8.924;2022-12-07T10:27:19;3.17;;;2.40;;
10134;SDS011;5107;48.850;8.924;2022-12-07T10:29:52;2.77;;;2.37;;
10134;SDS011;5107;48.850;8.924;2022-12-07T10:32:30;3.27;;;2.30;;
10134;SDS011;5107;48.850;8.924;2022-12-07T10:35:18;2.40;;;1.93;;
10134;SDS011;5107;48.850;8.924;2022-12-07T10:37:50;3.67;;;2.90;;
10134;SDS011;5107;48.850;8.924;2022-12-07T10:40:25;4.03;;;2.57;;
10134;SDS011;5107;48.850;8.924;2022-12-07T10:43:05;3.93;;;2.73;;
10134;SDS011;5107;48.850;8.924;2022-12-07T10:45:56;4.30;;;3.10;;
10134;SDS011;5107;48.850;8.924;2022-12-07T10:48:52;6.73;;;3.57;;
10134;SDS011;5107;48.850;8.924;2022-12-07T10:51:30;4.40;;;3.20;;
10134;SDS011;5107;48.850;8.924;2022-12-07T10:54:10;4.40;;;3.13;;
10134;SDS011;5107;48.850;8.924;2022-12-07T11:00:18;6.13;;;3.77;;
10134;SDS011;5107;48.850;8.924;2022-12-07T11:03:01;5.17;;;3.87;;
10134;SDS011;5107;48.850;8.924;2022-12-07T11:05:49;8.63;;;4.90;;
10134;SDS011;5107;48.850;8.924;2022-12-07T11:08:36;6.83;;;4.67;;
10134;SDS011;5107;48.850;8.924;2022-12-07T11:11:16;6.10;;;4.57;;
10134;SDS011;5107;48.850;8.924;2022-12-07T11:13:53;7.33;;;5.27;;
10134;SDS011;5107;48.850;8.924;2022-12-07T11:16:43;7.43;;;5.07;;
10134;SDS011;5107;48.850;8.924;2022-12-07T11:19:29;7.50;;;5.10;;
10134;SDS011;5107;48.850;8.924;2022-12-07T11:22:16;6.83;;;4.67;;
10134;SDS011;5107;48.850;8.924;2022-12-07T11:24:50;6.20;;;4.70;;
10134;SDS011;5107;48.850;8.924;2022-12-07T11:27:29;7.07;;;4.70;;
10134;SDS011;5107;48.850;8.924;2022-12-07T11:30:09;5.97;;;4.60;;
10134;SDS011;5107;48.850;8.924;2022-12-07T11:35:45;6.30;;;4.40;;
10134;SDS011;5107;48.850;8.924;2022-12-07T11:38:23;8.77;;;4.63;;
10134;SDS011;5107;48.850;8.924;2022-12-07T11:41:02;8.40;;;5.37;;
10134;SDS011;5107;48.850;8.924;2022-12-07T11:43:41;10.80;;;5.57;;
10134;SDS011;5107;48.850;8.924;2022-12-07T11:46:26;7.50;;;5.10;;
10134;SDS011;5107;48.850;8.924;2022-12-07T11:49:03;7.93;;;4.87;;
10134;SDS011;5107;48.850;8.924;2022-12-07T11:51:39;6.07;;;4.33;;
10134;SDS011;5107;48.850;8.924;2022-12-07T11:54:11;7.03;;;4.47;;
10134;SDS011;5107;48.850;8.924;2022-12-07T11:56:44;6.83;;;5.03;;
10134;SDS011;5107;48.850;8.924;2022-12-07T11:59:17;7.87;;;5.37;;
10134;SDS011;5107;48.850;8.924;2022-12-07T12:01:54;9.80;;;6.43;;
10134;SDS011;5107;48.850;8.924;2022-12-07T12:04:30;10.87;;;6.17;;
10134;SDS011;5107;48.850;8.924;2022-12-07T12:07:11;9.10;;;6.43;;
10134;SDS011;5107;48.850;8.924;2022-12-07T12:09:45;7.33;;;4.87;;
10134;SDS011;5107;48.850;8.924;2022-12-07T12:12:20;8.60;;;5.77;;
10134;SDS011;5107;48.850;8.924;2022-12-07T12:15:25;13.10;;;6.80;;
10134;SDS011;5107;48.850;8.924;2022-12-07T12:18:07;9.37;;;6.03;;
10134;SDS011;5107;48.850;8.924;2022-12-07T12:21:04;10.80;;;6.17;;
10134;SDS011;5107;48.850;8.924;2022-12-07T12:23:36;7.23;;;5.37;;
10134;SDS011;5107;48.850;8.924;2022-12-07T12:26:13;10.10;;;7.00;;
10134;SDS011;5107;48.850;8.924;2022-12-07T12:28:49;9.30;;;5.90;;
10134;SDS011;5107;48.850;8.924;2022-12-07T12:31:37;9.73;;;6.27;;
10134;SDS011;5107;48.850;8.924;2022-12-07T12:37:42;9.83;;;6.10;;
10134;SDS011;5107;48.850;8.924;2022-12-07T13:02:01;11.30;;;6.43;;
10134;SDS011;5107;48.850;8.924;2022-12-07T13:04:50;9.47;;;6.07;;
10134;SDS011;5107;48.850;8.924;2022-12-07T13:10:32;10.87;;;6.83;;
10134;SDS011;5107;48.850;8.924;2022-12-07T13:22:44;10.37;;;6.23;;
10134;SDS011;5107;48.850;8.924;2022-12-07T13:25:29;9.93;;;5.90;;
10134;SDS011;5107;48.850;8.924;2022-12-07T13:28:07;9.00;;;5.70;;
10134;SDS011;5107;48.850;8.924;2022-12-07T13:30:43;7.93;;;5.37;;
10134;SDS011;5107;48.850;8.924;2022-12-07T13:33:29;9.10;;;5.93;;
10134;SDS011;5107;48.850;8.924;2022-12-07T13:35:56;9.73;;;5.87;;
10134;SDS011;5107;48.850;8.924;2022-12-07T13:38:27;11.27;;;6.00;;
10134;SDS011;5107;48.850;8.924;2022-12-07T13:41:05;10.30;;;5.50;;
10134;SDS011;5107;48.850;8.924;2022-12-07T13:43:43;7.57;;;5.37;;
10134;SDS011;5107;48.850;8.924;2022-12-07T13:46:12;8.50;;;5.33;;
10134;SDS011;5107;48.850;8.924;2022-12-07T13:48:43;8.80;;;5.70;;
10134;SDS011;5107;48.850;8.924;2022-12-07T13:51:22;9.50;;;5.90;;
10134;SDS011;5107;48.850;8.924;2022-12-07T13:53:52;7.30;;;4.70;;
10134;SDS011;5107;48.850;8.924;2022-12-07T13:56:25;7.83;;;5.13;;
10134;SDS011;5107;48.850;8.924;2022-12-07T13:58:57;7.90;;;5.63;;
10134;SDS011;5107;48.850;8.924;2022-12-07T14:01:25;7.20;;;5.00;;
10134;SDS011;5107;48.850;8.924;2022-12-07T14:03:52;7.90;;;5.27;;
10134;SDS011;5107;48.850;8.924;2022-12-07T14:06:22;8.70;;;4.90;;
10134;SDS011;5107;48.850;8.924;2022-12-07T14:09:07;8.80;;;5.37;;
10134;SDS011;5107;48.850;8.924;2022-12-07T14:11:44;5.70;;;4.13;;
10134;SDS011;5107;48.850;8.924;2022-12-07T14:14:13;6.23;;;4.20;;
10134;SDS011;5107;48.850;8.924;2022-12-07T14:16:54;8.70;;;4.57;;
10134;SDS011;5107;48.850;8.924;2022-12-07T14:19:41;7.37;;;5.10;;
10134;SDS011;5107;48.850;8.924;2022-12-07T14:22:18;7.80;;;4.13;;
10134;SDS011;5107;48.850;8.924;2022-12-07T14:24:58;7.17;;;4.90;;
10134;SDS011;5107;48.850;8.924;2022-12-07T14:27:53;8.70;;;5.03;;
10134;SDS011;5107;48.850;8.924;2022-12-07T14:30:24;8.23;;;4.87;;
10134;SDS011;5107;48.850;8.924;2022-12-07T14:32:54;9.07;;;4.97;;
10134;SDS011;5107;48.850;8.924;2022-12-07T14:35:25;8.50;;;5.67;;
10134;SDS011;5107;48.850;8.924;2022-12-07T14:37:53;11.33;;;6.50;;
10134;SDS011;5107;48.850;8.924;2022-12-07T14:40:20;9.00;;;6.30;;
10134;SDS011;5107;48.850;8.924;2022-12-07T14:42:50;10.40;;;6.30;;
10134;SDS011;5107;48.850;8.924;2022-12-07T14:45:23;10.80;;;6.70;;
10134;SDS011;5107;48.850;8.924;2022-12-07T14:47:50;11.63;;;6.93;;
10134;SDS011;5107;48.850;8.924;2022-12-07T14:50:18;11.83;;;7.40;;
10134;SDS011;5107;48.850;8.924;2022-12-07T14:52:48;11.13;;;6.60;;
10134;SDS011;5107;48.850;8.924;2022-12-07T14:55:23;11.23;;;6.70;;
10134;SDS011;5107;48.850;8.924;2022-12-07T14:57:53;10.03;;;6.20;;
10134;SDS011;5107;48.850;8.924;2022-12-07T15:00:22;11.57;;;7.50;;
10134;SDS011;5107;48.850;8.924;2022-12-07T15:02:52;14.07;;;7.90;;
10134;SDS011;5107;48.850;8.924;2022-12-07T15:05:20;12.20;;;7.63;;
10134;SDS011;5107;48.850;8.924;2022-12-07T15:07:48;13.10;;;8.10;;
10134;SDS011;5107;48.850;8.924;2022-12-07T15:10:19;16.87;;;8.90;;
10134;SDS011;5107;48.850;8.924;2022-12-07T15:12:48;14.23;;;8.43;;
10134;SDS011;5107;48.850;8.924;2022-12-07T15:15:17;13.53;;;7.37;;
10134;SDS011;5107;48.850;8.924;2022-12-07T15:17:44;17.10;;;8.23;;
10134;SDS011;5107;48.850;8.924;2022-12-07T15:20:12;15.63;;;8.80;;
10134;SDS011;5107;48.850;8.924;2022-12-07T15:22:42;14.13;;;8.33;;
10134;SDS011;5107;48.850;8.924;2022-12-07T15:25:12;16.73;;;8.10;;
10134;SDS011;5107;48.850;8.924;2022-12-07T15:27:40;14.33;;;8.33;;
10134;SDS011;5107;48.850;8.924;2022-12-07T15:30:07;16.13;;;9.20;;
10134;SDS011;5107;48.850;8.924;2022-12-07T15:32:36;14.57;;;7.67;;
10134;SDS011;5107;48.850;8.924;2022-12-07T15:35:04;14.10;;;8.17;;
10134;SDS011;5107;48.850;8.924;2022-12-07T15:37:31;13.13;;;7.80;;
10134;SDS011;5107;48.850;8.924;2022-12-07T15:39:59;14.03;;;8.70;;
10134;SDS011;5107;48.850;8.924;2022-12-07T15:42:26;15.27;;;8.80;;
10134;SDS011;5107;48.850;8.924;2022-12-07T15:44:53;15.40;;;8.37;;
10134;SDS011;5107;48.850;8.924;2022-12-07T15:47:31;14.63;;;8.67;;
10134;SDS011;5107;48.850;8.924;2022-12-07T15:50:01;16.47;;;8.80;;
10134;SDS011;5107;48.850;8.924;2022-12-07T15:52:29;15.33;;;8.50;;
10134;SDS011;5107;48.850;8.924;2022-12-07T15:54:56;14.83;;;8.33;;
10134;SDS011;5107;48.850;8.924;2022-12-07T15:57:25;15.70;;;8.57;;
10134;SDS011;5107;48.850;8.924;2022-12-07T15:59:52;15.47;;;8.80;;
10134;SDS011;5107;48.850;8.924;2022-12-07T16:02:19;14.50;;;8.57;;
10134;SDS011;5107;48.850;8.924;2022-12-07T16:04:47;16.07;;;9.93;;
10134;SDS011;5107;48.850;8.924;2022-12-07T16:07:16;21.37;;;11.07;;